createdAt,value
2018-03-16T00:01:37.932Z,55.50
2018-03-16T00:04:04.186Z,55.10
2018-03-16T00:06:30.601Z,55.43
2018-03-16T00:08:56.842Z,55.60
2018-03-16T00:11:23.065Z,55.10
2018-03-16T00:13:49.365Z,55.29
2018-03-16T00:16:15.624Z,54.92
2018-03-16T00:18:41.957Z,54.92
2018-03-16T00:21:08.232Z,54.74
2018-03-16T00:23:34.468Z,54.71
2018-03-16T00:26:00.921Z,54.78
2018-03-16T00:28:27.152Z,54.78
2018-03-16T00:30:53.407Z,54.79
2018-03-16T00:33:19.658Z,54.75
2018-03-16T00:35:45.906Z,54.84
2018-03-16T00:38:12.372Z,54.73
2018-03-16T00:40:38.633Z,54.54
2018-03-16T00:43:04.857Z,54.56
2018-03-16T00:45:31.253Z,54.47
2018-03-16T00:47:57.512Z,54.64
2018-03-16T00:50:23.840Z,54.80
2018-03-16T00:52:50.146Z,54.98
2018-03-16T00:55:16.368Z,54.98
2018-03-16T00:57:42.815Z,54.99
2018-03-16T01:00:09.095Z,54.96
2018-03-16T01:02:35.369Z,55.02
2018-03-16T01:05:01.606Z,54.89
2018-03-16T01:07:27.868Z,54.92
2018-03-16T01:09:54.359Z,54.91
2018-03-16T01:12:20.589Z,54.96
2018-03-16T01:14:46.829Z,54.64
2018-03-16T01:17:13.167Z,54.73
2018-03-16T01:19:39.429Z,54.80
2018-03-16T01:22:05.761Z,55.02
2018-03-16T01:24:32.021Z,55.11
2018-03-16T01:26:58.244Z,55.31
2018-03-16T01:29:24.693Z,55.23
2018-03-16T01:31:50.916Z,55.36
2018-03-16T01:34:17.145Z,55.40
2018-03-16T01:36:43.392Z,55.54
2018-03-16T01:39:09.617Z,55.64
2018-03-16T01:41:35.991Z,55.86
2018-03-16T01:44:02.233Z,55.93
2018-03-16T01:46:28.474Z,55.91
2018-03-16T01:48:54.908Z,56.02
2018-03-16T01:51:21.156Z,56.28
2018-03-16T01:53:47.376Z,56.39
2018-03-16T01:56:13.624Z,56.36
2018-03-16T01:58:39.840Z,56.43
2018-03-16T02:01:06.288Z,56.52
2018-03-16T02:03:32.600Z,56.67
2018-03-16T02:05:58.848Z,56.72
2018-03-16T02:08:25.196Z,56.72
2018-03-16T02:10:51.440Z,57.01
2018-03-16T02:13:17.785Z,57.11
2018-03-16T02:15:44.040Z,57.29
2018-03-16T02:18:10.280Z,57.40
2018-03-16T02:20:36.732Z,57.23
2018-03-16T02:23:03.004Z,57.38
2018-03-16T02:25:29.239Z,57.57
2018-03-16T02:27:55.492Z,57.56
2018-03-16T02:30:21.721Z,57.42
2018-03-16T02:32:48.075Z,57.70
2018-03-16T02:35:14.324Z,57.65
2018-03-16T02:37:40.621Z,57.56
2018-03-16T02:40:06.973Z,57.47
2018-03-16T02:42:33.196Z,57.39
2018-03-16T02:44:59.448Z,57.45
2018-03-16T02:47:25.677Z,57.56
2018-03-16T02:49:51.921Z,57.52
2018-03-16T02:52:18.297Z,57.58
2018-03-16T02:54:44.553Z,57.58
2018-03-16T02:57:10.780Z,57.63
2018-03-16T02:59:38.278Z,57.75
2018-03-16T03:02:04.524Z,57.89
2018-03-16T03:04:31.002Z,58.06
2018-03-16T03:06:57.234Z,58.03
2018-03-16T03:09:23.480Z,58.13
2018-03-16T03:11:49.708Z,58.13
2018-03-16T03:14:15.928Z,58.08
2018-03-16T03:16:42.413Z,58.31
2018-03-16T03:19:08.628Z,58.39
2018-03-16T03:21:34.863Z,58.47
2018-03-16T03:24:01.184Z,58.33
2018-03-16T03:26:27.429Z,58.26
2018-03-16T03:28:53.713Z,58.32
2018-03-16T03:31:19.966Z,58.27
2018-03-16T03:33:46.191Z,58.14
2018-03-16T03:36:12.561Z,58.08
2018-03-16T03:38:38.799Z,58.06
2018-03-16T03:41:05.052Z,57.77
2018-03-16T03:43:31.352Z,57.78
2018-03-16T03:45:57.568Z,57.96
2018-03-16T03:48:23.910Z,58.01
2018-03-16T03:50:50.189Z,57.82
2018-03-16T03:53:16.460Z,57.99
2018-03-16T03:55:42.883Z,58.12
2018-03-16T03:58:09.140Z,58.22
2018-03-16T04:00:35.444Z,58.22
2018-03-16T04:03:01.675Z,58.52
2018-03-16T04:05:27.908Z,58.57
2018-03-16T04:07:54.284Z,58.50
2018-03-16T04:10:20.575Z,58.40
2018-03-16T04:12:46.788Z,58.42
2018-03-16T04:15:13.241Z,58.69
2018-03-16T04:17:39.464Z,58.67
2018-03-16T04:20:05.813Z,58.87
2018-03-16T04:22:32.072Z,59.00
2018-03-16T04:24:58.337Z,59.05
2018-03-16T04:27:24.782Z,59.03
2018-03-16T04:29:51.036Z,59.25
2018-03-16T04:32:17.285Z,59.32
2018-03-16T04:34:43.529Z,59.28
2018-03-16T04:37:09.778Z,59.36
2018-03-16T04:39:36.143Z,59.45
2018-03-16T04:42:02.429Z,59.64
2018-03-16T04:44:28.648Z,59.58
2018-03-16T04:46:55.025Z,59.80
2018-03-16T04:49:21.240Z,59.82
2018-03-16T04:51:47.505Z,60.12
2018-03-16T04:54:13.744Z,60.33
2018-03-16T04:56:39.967Z,60.22
2018-03-16T04:59:06.385Z,60.55
2018-03-16T05:01:32.616Z,60.40
2018-03-16T05:03:58.883Z,60.73
2018-03-16T05:06:25.221Z,60.91
2018-03-16T05:08:51.455Z,60.98
2018-03-16T05:11:17.820Z,61.24
2018-03-16T05:13:44.087Z,61.24
2018-03-16T05:16:10.336Z,61.38
2018-03-16T05:18:36.840Z,61.46
2018-03-16T05:21:03.068Z,61.55
2018-03-16T05:23:29.280Z,61.86
2018-03-16T05:25:55.533Z,62.05
2018-03-16T05:28:21.773Z,62.23
2018-03-16T05:30:48.086Z,62.40
2018-03-16T05:33:14.372Z,62.68
2018-03-16T05:35:40.623Z,63.11
2018-03-16T05:38:07.014Z,63.19
2018-03-16T05:40:33.284Z,63.44
2018-03-16T05:42:59.541Z,63.89
2018-03-16T05:45:25.780Z,63.83
2018-03-16T05:47:52.020Z,63.88
2018-03-16T05:50:18.445Z,64.18
2018-03-16T05:52:44.695Z,64.33
2018-03-16T05:55:10.940Z,64.51
2018-03-16T05:57:37.278Z,64.63
2018-03-16T06:00:03.524Z,65.00
2018-03-16T06:02:29.845Z,64.93
2018-03-16T06:04:56.121Z,64.86
2018-03-16T06:07:22.380Z,64.80
2018-03-16T06:09:48.631Z,65.00
2018-03-16T06:12:14.884Z,64.90
2018-03-16T06:14:41.138Z,64.91
2018-03-16T06:17:07.364Z,65.33
2018-03-16T06:19:33.625Z,65.29
2018-03-16T06:21:59.847Z,65.35
2018-03-16T06:24:26.119Z,65.39
2018-03-16T06:26:52.370Z,65.34
2018-03-16T06:29:18.604Z,65.20
2018-03-16T06:31:44.816Z,65.06
2018-03-16T06:34:11.060Z,65.45
2018-03-16T06:36:37.311Z,65.34
2018-03-16T06:39:03.641Z,65.61
2018-03-16T06:41:29.880Z,65.82
2018-03-16T06:43:56.121Z,66.18
2018-03-16T06:46:22.373Z,66.02
2018-03-16T06:48:48.660Z,65.92
2018-03-16T06:51:14.925Z,66.18
2018-03-16T06:53:41.183Z,66.06
2018-03-16T06:56:07.472Z,65.57
2018-03-16T06:58:33.711Z,65.94
2018-03-16T07:00:59.987Z,65.92
2018-03-16T07:03:26.246Z,66.05
2018-03-16T07:05:52.672Z,66.03
2018-03-16T07:08:18.961Z,65.87
2018-03-16T07:10:45.208Z,65.82
2018-03-16T07:13:11.461Z,66.15
2018-03-16T07:15:37.736Z,65.78
2018-03-16T07:18:04.007Z,66.18
2018-03-16T07:20:30.260Z,65.98
2018-03-16T07:22:56.551Z,65.35
2018-03-16T07:25:22.819Z,65.83
2018-03-16T07:27:49.072Z,66.02
2018-03-16T07:30:15.343Z,65.80
2018-03-16T07:32:41.600Z,65.82
2018-03-16T07:35:07.889Z,65.91
2018-03-16T07:37:34.153Z,66.02
2018-03-16T07:40:00.414Z,65.98
2018-03-16T07:42:26.660Z,65.59
2018-03-16T07:44:52.948Z,65.69
2018-03-16T07:47:19.219Z,65.53
2018-03-16T07:49:45.452Z,64.92
2018-03-16T07:52:11.824Z,65.44
2018-03-16T07:54:38.068Z,65.34
2018-03-16T07:57:04.337Z,65.09
2018-03-16T07:59:30.604Z,64.90
2018-03-16T08:01:56.863Z,65.32
2018-03-16T08:04:23.098Z,65.66
2018-03-16T08:06:49.379Z,65.57
2018-03-16T08:09:15.664Z,65.23
2018-03-16T08:11:41.922Z,65.41
2018-03-16T08:14:08.169Z,65.58
2018-03-16T08:16:34.405Z,65.10
2018-03-16T08:19:00.688Z,65.08
2018-03-16T08:21:26.931Z,65.26
2018-03-16T08:23:53.213Z,65.19
2018-03-16T08:26:19.468Z,65.32
2018-03-16T08:28:45.763Z,65.67
2018-03-16T08:31:12.045Z,65.26
2018-03-16T08:33:38.297Z,65.45
2018-03-16T08:36:04.581Z,65.18
2018-03-16T08:38:30.839Z,64.94
2018-03-16T08:40:57.082Z,64.89
2018-03-16T08:43:23.334Z,64.81
2018-03-16T08:45:49.622Z,64.93
2018-03-16T08:48:16.342Z,64.69
2018-03-16T08:50:42.609Z,64.80
2018-03-16T08:53:08.837Z,64.16
2018-03-16T08:55:35.130Z,64.45
2018-03-16T08:58:01.421Z,64.62
2018-03-16T09:00:27.669Z,64.03
2018-03-16T09:02:53.931Z,63.39
2018-03-16T09:05:20.226Z,63.62
2018-03-16T09:07:46.472Z,63.86
2018-03-16T09:10:12.699Z,63.17
2018-03-16T09:12:38.991Z,63.43
2018-03-16T09:15:05.220Z,63.14
2018-03-16T09:17:31.460Z,62.53
2018-03-16T09:19:57.684Z,62.91
2018-03-16T09:22:23.953Z,63.29
2018-03-16T09:24:50.184Z,62.70
2018-03-16T09:27:16.473Z,62.53
2018-03-16T09:29:42.757Z,62.37
2018-03-16T09:32:08.999Z,62.30
2018-03-16T09:34:35.244Z,62.07
2018-03-16T09:37:01.473Z,62.16
2018-03-16T09:39:27.765Z,61.66
2018-03-16T09:41:54.002Z,62.34
2018-03-16T09:44:20.268Z,62.87
2018-03-16T09:46:46.492Z,62.68
2018-03-16T09:49:12.740Z,62.82
2018-03-16T09:51:38.969Z,62.59
2018-03-16T09:54:05.239Z,62.53
2018-03-16T09:56:31.464Z,61.89
2018-03-16T09:58:57.685Z,62.24
2018-03-16T10:01:23.957Z,61.72
2018-03-16T10:03:50.212Z,62.03
2018-03-16T10:06:16.540Z,61.83
2018-03-16T10:08:42.764Z,61.44
2018-03-16T10:11:09.022Z,62.00
2018-03-16T10:13:35.273Z,61.96
2018-03-16T10:16:01.524Z,62.37
2018-03-16T10:18:27.831Z,62.24
2018-03-16T10:20:54.091Z,62.61
2018-03-16T10:23:20.377Z,62.41
2018-03-16T10:25:46.617Z,62.80
2018-03-16T10:28:13.073Z,62.04
2018-03-16T10:30:39.315Z,61.94
2018-03-16T10:33:05.552Z,62.08
2018-03-16T10:35:31.801Z,61.86
2018-03-16T10:37:58.051Z,62.29
2018-03-16T10:40:24.283Z,62.65
2018-03-16T10:42:50.542Z,62.91
2018-03-16T10:45:16.811Z,63.02
2018-03-16T10:47:43.033Z,62.67
2018-03-16T10:50:09.305Z,62.23
2018-03-16T10:55:08.520Z,62.09
2018-03-16T10:57:34.756Z,62.97
2018-03-16T11:00:00.996Z,62.16
2018-03-16T11:02:33.182Z,61.88
2018-03-16T11:05:05.396Z,61.99
2018-03-16T11:10:29.736Z,62.37
2018-03-16T11:12:55.964Z,62.30
2018-03-16T11:15:22.232Z,61.87
2018-03-16T11:17:48.490Z,62.23
2018-03-16T11:20:14.752Z,62.07
2018-03-16T11:22:40.980Z,62.35
2018-03-16T11:25:07.225Z,62.17
2018-03-16T11:27:33.504Z,62.35
2018-03-16T11:29:59.796Z,61.77
2018-03-16T11:32:26.144Z,61.75
2018-03-16T11:34:52.351Z,62.03
2018-03-16T11:37:18.588Z,61.67
2018-03-16T11:39:44.832Z,61.78
2018-03-16T11:42:11.108Z,61.33
2018-03-16T11:44:43.085Z,61.80
2018-03-16T11:47:09.348Z,61.46
2018-03-16T11:49:35.652Z,62.03
2018-03-16T11:52:01.925Z,62.08
2018-03-16T11:54:28.208Z,61.51
2018-03-16T11:56:54.468Z,61.29
2018-03-16T11:59:20.775Z,61.32
2018-03-16T12:01:46.996Z,61.49
2018-03-16T12:04:13.249Z,61.88
2018-03-16T12:06:39.468Z,62.03
2018-03-16T12:09:05.777Z,61.51
2018-03-16T12:11:32.052Z,61.28
2018-03-16T12:13:58.287Z,61.60
2018-03-16T12:16:24.548Z,61.38
2018-03-16T12:18:50.781Z,61.67
2018-03-16T12:21:17.035Z,61.85
2018-03-16T12:23:43.297Z,61.89
2018-03-16T12:26:09.549Z,61.66
2018-03-16T12:28:49.573Z,61.73
2018-03-16T12:31:02.138Z,62.71
2018-03-16T12:33:28.392Z,62.74
2018-03-16T12:35:54.693Z,62.58
2018-03-16T12:38:20.968Z,62.10
2018-03-16T12:40:47.261Z,61.89
2018-03-16T12:43:13.541Z,61.67
2018-03-16T12:45:39.772Z,61.03
2018-03-16T12:48:06.084Z,61.23
2018-03-16T12:50:32.341Z,61.16
2018-03-16T12:52:58.637Z,61.13
2018-03-16T12:55:24.912Z,61.78
2018-03-16T12:57:51.176Z,61.04
2018-03-16T13:00:17.444Z,60.90
2018-03-16T13:02:43.805Z,61.04
2018-03-16T13:05:10.084Z,60.97
2018-03-16T13:07:36.320Z,61.19
2018-03-16T13:10:02.603Z,60.94
2018-03-16T13:12:28.848Z,61.16
2018-03-16T13:14:55.104Z,61.12
2018-03-16T13:17:21.324Z,61.30
2018-03-16T13:19:47.584Z,61.85
2018-03-16T13:22:13.840Z,61.80
2018-03-16T13:24:40.088Z,61.94
2018-03-16T13:27:06.307Z,61.23
2018-03-16T13:29:32.528Z,61.73
2018-03-16T13:31:58.772Z,61.51
2018-03-16T13:34:25.005Z,61.30
2018-03-16T13:36:51.264Z,60.92
2018-03-16T13:39:17.494Z,60.64
2018-03-16T13:41:43.748Z,60.95
2018-03-16T13:44:09.970Z,61.24
2018-03-16T13:46:36.233Z,61.27
2018-03-16T13:49:02.522Z,61.35
2018-03-16T13:51:28.790Z,61.40
2018-03-16T13:53:55.024Z,61.24
2018-03-16T13:56:21.923Z,61.24
2018-03-16T13:58:48.418Z,61.21
2018-03-16T14:01:14.780Z,61.43
2018-03-16T14:03:41.308Z,61.27
2018-03-16T14:06:07.592Z,61.50
2018-03-16T14:08:33.947Z,60.75
2018-03-16T14:11:00.217Z,61.10
2018-03-16T14:13:26.619Z,61.10
2018-03-16T14:15:52.968Z,60.88
2018-03-16T14:18:20.375Z,60.66
2018-03-16T14:20:46.769Z,60.95
2018-03-16T14:23:13.034Z,60.92
2018-03-16T14:25:39.572Z,61.24
2018-03-16T14:28:05.868Z,61.23
2018-03-16T14:30:32.363Z,61.10
2018-03-16T14:32:58.606Z,60.70
2018-03-16T14:35:25.098Z,60.88
2018-03-16T14:37:51.460Z,61.25
2018-03-16T14:40:17.814Z,61.54
2018-03-16T14:42:44.242Z,61.45
2018-03-16T14:45:10.552Z,61.43
2018-03-16T14:47:37.264Z,61.80
2018-03-16T14:50:06.263Z,62.25
2018-03-16T14:52:32.532Z,61.88
2018-03-16T14:54:58.811Z,62.10
2018-03-16T14:57:25.195Z,62.27
2018-03-16T14:59:51.488Z,61.92
2018-03-16T15:02:17.785Z,62.04
2018-03-16T15:04:44.407Z,60.94
2018-03-16T15:07:10.691Z,61.54
2018-03-16T15:09:36.956Z,61.44
2018-03-16T15:12:03.450Z,61.38
2018-03-16T15:14:29.867Z,61.47
2018-03-16T15:16:56.313Z,61.44
2018-03-16T15:19:22.620Z,61.12
2018-03-16T15:21:49.063Z,61.00
2018-03-16T15:24:15.360Z,60.95
2018-03-16T15:26:48.436Z,60.98
2018-03-16T15:29:15.040Z,61.15
2018-03-16T15:31:41.284Z,60.27
2018-03-16T15:34:07.551Z,60.40
2018-03-16T15:36:33.916Z,60.76
2018-03-16T15:39:00.405Z,60.95
2018-03-16T15:41:26.678Z,60.99
2018-03-16T15:43:53.058Z,62.24
2018-03-16T15:46:19.379Z,61.28
2018-03-16T15:48:45.736Z,61.85
2018-03-16T15:51:12.062Z,61.56
2018-03-16T15:53:38.321Z,61.88
2018-03-16T15:56:04.730Z,61.71
2018-03-16T15:58:30.978Z,61.57
2018-03-16T16:00:57.241Z,61.34
2018-03-16T16:03:23.895Z,61.87
2018-03-16T16:05:50.374Z,61.52
2018-03-16T16:08:16.851Z,61.90
2018-03-16T16:10:43.122Z,61.95
2018-03-16T16:13:09.639Z,61.92
2018-03-16T16:15:35.940Z,62.37
2018-03-16T16:18:02.351Z,62.26
2018-03-16T16:20:28.572Z,62.41
2018-03-16T16:22:54.784Z,63.09
2018-03-16T16:25:21.075Z,62.96
2018-03-16T16:27:47.301Z,62.66
2018-03-16T16:30:13.741Z,62.69
2018-03-16T16:32:40.152Z,62.68
2018-03-16T16:35:06.420Z,62.40
2018-03-16T16:37:32.714Z,62.55
2018-03-16T16:39:58.991Z,62.82
2018-03-16T16:42:25.340Z,62.56
2018-03-16T16:44:51.635Z,61.23
2018-03-16T16:47:18.410Z,61.29
2018-03-16T16:49:44.684Z,61.94
2018-03-16T16:52:11.014Z,61.67
2018-03-16T16:54:37.628Z,62.69
2018-03-16T16:57:03.892Z,62.79
2018-03-16T16:59:30.385Z,62.64
2018-03-16T17:01:56.745Z,61.95
2018-03-16T17:04:23.205Z,62.18
2018-03-16T17:06:49.491Z,62.83
2018-03-16T17:09:16.040Z,63.15
2018-03-16T17:11:42.529Z,63.00
2018-03-16T17:14:08.801Z,63.14
2018-03-16T17:16:35.285Z,63.52
2018-03-16T17:19:01.604Z,63.62
2018-03-16T17:21:27.917Z,63.21
2018-03-16T17:23:54.483Z,63.09
2018-03-16T17:26:20.733Z,63.36
2018-03-16T17:28:46.992Z,63.57
2018-03-16T17:31:13.231Z,62.56
2018-03-16T17:33:39.464Z,62.92
2018-03-16T17:36:05.732Z,63.13
2018-03-16T17:38:32.235Z,62.63
2018-03-16T17:40:58.528Z,62.89
2018-03-16T17:43:24.843Z,62.38
2018-03-16T17:45:51.173Z,62.38
2018-03-16T17:48:17.549Z,62.40
2018-03-16T17:50:43.926Z,62.61
2018-03-16T17:53:10.162Z,62.23
2018-03-16T17:55:36.433Z,62.33
2018-03-16T17:58:02.720Z,62.76
2018-03-16T18:00:29.037Z,62.76
2018-03-16T18:02:55.285Z,62.70
2018-03-16T18:05:21.640Z,62.70
2018-03-16T18:07:47.970Z,62.55
2018-03-16T18:10:14.487Z,62.35
2018-03-16T18:12:40.760Z,62.38
2018-03-16T18:15:07.009Z,62.18
2018-03-16T18:17:34.125Z,62.91
2018-03-16T18:20:00.411Z,62.61
2018-03-16T18:22:26.848Z,63.03
2018-03-16T18:24:53.300Z,62.75
2018-03-16T18:27:19.577Z,62.64
2018-03-16T18:29:46.225Z,63.11
2018-03-16T18:32:12.516Z,62.71
2018-03-16T18:34:38.812Z,62.62
2018-03-16T18:37:05.059Z,62.64
2018-03-16T18:39:32.016Z,62.50
2018-03-16T18:41:58.534Z,62.66
2018-03-16T18:44:24.784Z,62.65
2018-03-16T18:46:51.045Z,61.92
2018-03-16T18:49:17.488Z,62.24
2018-03-16T18:51:43.744Z,62.27
2018-03-16T18:54:10.226Z,62.01
2018-03-16T18:56:37.515Z,62.08
2018-03-16T18:59:03.840Z,61.89
2018-03-16T19:01:30.124Z,62.20
2018-03-16T19:03:56.387Z,61.79
2018-03-16T19:06:22.656Z,61.80
2018-03-16T19:08:48.906Z,61.58
2018-03-16T19:11:15.165Z,61.72
2018-03-16T19:13:41.769Z,61.67
2018-03-16T19:16:08.321Z,61.59
2018-03-16T19:18:34.704Z,61.28
2018-03-16T19:21:01.105Z,61.54
2018-03-16T19:23:27.509Z,61.79
2018-03-16T19:25:53.784Z,61.75
2018-03-16T19:28:20.253Z,61.34
2018-03-16T19:30:46.537Z,61.57
2018-03-16T19:33:12.837Z,61.30
2018-03-16T19:35:39.496Z,61.54
2018-03-16T19:38:05.827Z,60.99
2018-03-16T19:40:32.232Z,61.39
2018-03-16T19:42:58.491Z,61.22
2018-03-16T19:45:24.924Z,61.29
2018-03-16T19:47:51.176Z,61.50
2018-03-16T19:50:17.441Z,61.76
2018-03-16T19:52:44.009Z,61.93
2018-03-16T19:55:10.317Z,61.83
2018-03-16T19:57:36.632Z,61.80
2018-03-16T20:00:02.916Z,61.73
2018-03-16T20:02:29.176Z,61.93
2018-03-16T20:04:55.432Z,61.65
2018-03-16T20:07:21.752Z,61.49
2018-03-16T20:09:48.000Z,61.51
2018-03-16T20:12:14.243Z,61.78
2018-03-16T20:14:40.842Z,61.77
2018-03-16T20:17:07.333Z,61.77
2018-03-16T20:19:33.684Z,61.40
2018-03-16T20:22:00.052Z,61.63
2018-03-16T20:24:26.341Z,61.58
2018-03-16T20:26:52.605Z,61.55
2018-03-16T20:29:18.841Z,61.93
2018-03-16T20:31:45.148Z,61.86
2018-03-16T20:34:11.380Z,61.70
2018-03-16T20:36:37.648Z,61.92
2018-03-16T20:39:03.965Z,61.88
2018-03-16T20:41:30.226Z,61.77
2018-03-16T20:43:56.473Z,61.69
2018-03-16T20:46:22.732Z,61.99
2018-03-16T20:48:50.274Z,61.87
2018-03-16T20:51:16.574Z,61.77
2018-03-16T20:53:42.805Z,61.81
2018-03-16T20:56:09.071Z,61.60
2018-03-16T20:58:35.324Z,62.01
2018-03-16T21:01:01.565Z,62.12
2018-03-16T21:03:27.821Z,62.05
2018-03-16T21:08:26.914Z,62.01
2018-03-16T21:10:53.159Z,61.95
2018-03-16T21:13:19.424Z,61.74
2018-03-16T21:15:45.704Z,61.88
2018-03-16T21:18:12.225Z,61.66
2018-03-16T21:20:39.266Z,61.72
2018-03-16T21:23:05.593Z,61.78
2018-03-16T21:25:31.827Z,61.72
2018-03-16T21:27:58.334Z,61.82
2018-03-16T21:30:24.600Z,61.56
2018-03-16T21:32:51.263Z,61.53
2018-03-16T21:35:17.549Z,61.58
2018-03-16T21:37:43.803Z,61.79
2018-03-16T21:40:10.288Z,61.76
2018-03-16T21:42:36.583Z,62.28
2018-03-16T21:45:02.940Z,62.07
2018-03-16T21:47:29.333Z,61.54
2018-03-16T21:49:55.604Z,61.52
2018-03-16T21:52:21.876Z,61.63
2018-03-16T21:54:48.921Z,61.60
2018-03-16T21:57:15.568Z,62.04
2018-03-16T21:59:41.852Z,61.68
2018-03-16T22:02:08.104Z,61.73
2018-03-16T22:04:34.373Z,61.43
2018-03-16T22:07:00.628Z,61.66
2018-03-16T22:09:27.120Z,61.47
2018-03-16T22:11:53.356Z,61.43
2018-03-16T22:14:19.588Z,61.40
2018-03-16T22:16:45.844Z,61.56
2018-03-16T22:19:12.156Z,61.60
2018-03-16T22:21:38.629Z,61.76
2018-03-16T22:24:04.989Z,62.37
2018-03-16T22:26:32.093Z,62.42
2018-03-16T22:28:58.365Z,62.19
2018-03-16T22:31:24.601Z,62.05
2018-03-16T22:33:50.856Z,61.87
2018-03-16T22:36:17.104Z,61.68
2018-03-16T22:38:43.435Z,61.60
2018-03-16T22:41:09.708Z,61.41
2018-03-16T22:43:35.941Z,61.35
2018-03-16T22:46:03.302Z,61.50
2018-03-16T22:48:29.648Z,61.65
2018-03-16T22:50:56.164Z,61.53
2018-03-16T22:53:22.448Z,61.24
2018-03-16T22:55:48.672Z,61.12
2018-03-16T22:58:14.949Z,60.94
2018-03-16T23:00:41.710Z,61.00
2018-03-16T23:03:08.081Z,60.82
2018-03-16T23:05:34.652Z,60.62
2018-03-16T23:08:01.199Z,60.96
2018-03-16T23:10:27.491Z,60.98
2018-03-16T23:12:53.887Z,61.02
2018-03-16T23:15:20.144Z,61.18
2018-03-16T23:17:46.432Z,61.14
2018-03-16T23:20:12.685Z,61.54
2018-03-16T23:22:40.329Z,61.22
2018-03-16T23:25:06.591Z,61.22
2018-03-16T23:27:32.939Z,61.16
2018-03-16T23:29:59.276Z,61.27
2018-03-16T23:32:25.720Z,61.32
2018-03-16T23:34:51.992Z,61.45
2018-03-16T23:37:18.351Z,61.55
2018-03-16T23:39:44.639Z,61.64
2018-03-16T23:42:10.899Z,61.34
2018-03-16T23:44:37.559Z,61.24
2018-03-16T23:47:03.950Z,61.36
2018-03-16T23:49:30.221Z,60.91
2018-03-16T23:51:56.673Z,61.02
2018-03-16T23:54:22.956Z,61.22
2018-03-16T23:56:49.522Z,61.00
2018-03-16T23:59:15.825Z,60.98
